Time;durP1;ratioP1;P1;durP2;ratioP2;P2;SDS_P1;SDS_P2;PMS_P1;PMS_P2;Temp;Humidity;BMP_temperature;BMP_pressure;BME280_temperature;BME280_humidity;BME280_pressure;Samples;Min_cycle;Max_cycle;Signal;HPM_P1;HPM_P2
2022/01/30 00:01:59;;;;;;;19.60;4.50;;;6.60;99.90;;;;;;5073603;28;20116;-71
2022/01/30 00:04:25;;;;;;;23.55;5.75;;;6.60;99.90;;;;;;5075118;28;20040;-71
2022/01/30 00:06:50;;;;;;;30.13;6.13;;;6.60;99.90;;;;;;5073433;28;20040;-71
2022/01/30 00:09:21;;;;;;;27.58;5.85;;;6.60;99.90;;;;;;5073553;28;20123;-71
2022/01/30 00:11:53;;;;;;;30.67;5.40;;;6.70;99.90;;;;;;5073338;28;20119;-70
2022/01/30 00:14:21;;;;;;;20.73;6.25;;;6.80;99.90;;;;;;5075156;28;20048;-71
2022/01/30 00:16:55;;;;;;;26.42;6.35;;;6.70;99.90;;;;;;5056282;28;20037;-71
2022/01/30 00:19:27;;;;;;;21.27;6.00;;;6.80;99.90;;;;;;5074877;28;20033;-70
2022/01/30 00:22:12;;;;;;;21.33;4.20;;;6.60;99.90;;;;;;5072686;28;20463;-71
2022/01/30 00:25:02;;;;;;;21.55;4.50;;;6.50;99.90;;;;;;5073738;28;20044;-70
2022/01/30 00:27:48;;;;;;;16.42;3.83;;;6.50;99.90;;;;;;5072656;28;20488;-70
2022/01/30 00:30:15;;;;;;;21.83;3.95;;;6.40;99.90;;;;;;5073533;28;20517;-70
2022/01/30 00:32:41;;;;;;;22.20;3.55;;;6.40;99.90;;;;;;5074654;28;20048;-70
2022/01/30 00:35:09;;;;;;;12.23;3.08;;;6.40;99.90;;;;;;5073947;28;20045;-71
2022/01/30 00:37:40;;;;;;;18.58;2.38;;;6.40;99.90;;;;;;5072598;28;20066;-70
2022/01/30 00:40:07;;;;;;;13.85;3.45;;;6.30;99.90;;;;;;5072954;28;20042;-71
2022/01/30 00:42:33;;;;;;;17.10;3.38;;;6.30;99.90;;;;;;5072734;28;20040;-71
2022/01/30 00:44:59;;;;;;;15.15;3.97;;;6.30;99.90;;;;;;5073983;28;20041;-71
2022/01/30 00:47:25;;;;;;;18.23;4.60;;;6.30;99.90;;;;;;5073621;28;20504;-71
2022/01/30 00:49:51;;;;;;;21.50;4.45;;;6.20;99.90;;;;;;5074767;28;20392;-71
2022/01/30 00:52:17;;;;;;;17.90;4.43;;;6.20;99.90;;;;;;5074061;28;20032;-71
2022/01/30 00:54:45;;;;;;;21.02;4.95;;;6.20;99.90;;;;;;5073838;28;20048;-71
2022/01/30 00:57:11;;;;;;;13.18;3.60;;;6.10;99.90;;;;;;5073596;28;20489;-71
2022/01/30 00:59:37;;;;;;;16.33;3.50;;;6.00;99.90;;;;;;5072655;28;20083;-71
2022/01/30 01:02:04;;;;;;;16.88;3.85;;;6.00;99.90;;;;;;5073374;28;20039;-71
2022/01/30 01:04:30;;;;;;;17.00;4.00;;;5.90;99.90;;;;;;5073930;28;20415;-71
2022/01/30 01:06:56;;;;;;;22.65;4.47;;;5.90;99.90;;;;;;5073706;28;20388;-71
2022/01/30 01:09:26;;;;;;;19.15;4.55;;;5.80;99.90;;;;;;5073851;28;20104;-71
2022/01/30 01:12:31;;;;;;;20.27;5.15;;;5.90;99.90;;;;;;5072615;28;20048;-71
2022/01/30 01:25:46;;;;;;;36.38;6.63;;;6.10;99.90;;;;;;5072205;28;20048;-70
2022/01/30 01:28:12;;;;;;;25.52;5.75;;;6.20;99.90;;;;;;5072162;28;20043;-71
2022/01/30 01:30:37;;;;;;;30.55;6.07;;;6.20;99.90;;;;;;5073883;28;20043;-70
2022/01/30 01:33:04;;;;;;;32.90;5.78;;;6.30;99.90;;;;;;5072301;28;20041;-71
2022/01/30 01:35:29;;;;;;;30.40;6.32;;;6.30;99.90;;;;;;5073717;28;20127;-71
2022/01/30 01:37:55;;;;;;;31.42;6.55;;;6.50;99.90;;;;;;5073138;28;20456;-71
2022/01/30 01:40:23;;;;;;;26.83;6.07;;;6.50;99.90;;;;;;5073453;28;20507;-71
2022/01/30 01:42:48;;;;;;;37.42;6.75;;;6.50;99.90;;;;;;5073360;28;20072;-71
2022/01/30 01:45:19;;;;;;;29.05;6.78;;;6.50;99.90;;;;;;5055184;28;20476;-71
2022/01/30 01:47:45;;;;;;;21.90;6.60;;;6.30;99.90;;;;;;5072775;28;20116;-70
2022/01/30 01:50:17;;;;;;;34.60;6.28;;;6.30;99.90;;;;;;5071996;28;20048;-71
2022/01/30 01:52:46;;;;;;;25.60;5.13;;;6.40;99.90;;;;;;5072394;28;20052;-71
2022/01/30 01:55:11;;;;;;;26.05;5.97;;;6.50;99.90;;;;;;5072380;28;20389;-71
2022/01/30 01:57:37;;;;;;;21.05;5.80;;;6.30;99.90;;;;;;5072788;28;20044;-70
2022/01/30 02:00:04;;;;;;;35.80;5.25;;;6.20;99.90;;;;;;5073328;28;20446;-71
2022/01/30 02:02:30;;;;;;;21.58;5.25;;;6.20;99.90;;;;;;5071808;28;20037;-71
2022/01/30 02:04:58;;;;;;;27.75;5.78;;;6.20;99.90;;;;;;5072116;28;20101;-71
2022/01/30 02:08:06;;;;;;;32.47;6.35;;;6.20;99.90;;;;;;5072809;28;20481;-70
2022/01/30 02:10:33;;;;;;;31.38;5.93;;;6.20;99.90;;;;;;5071805;28;20057;-71
2022/01/30 02:13:15;;;;;;;23.85;5.70;;;6.20;99.90;;;;;;5073673;28;20462;-70
2022/01/30 02:23:56;;;;;;;34.03;5.95;;;6.10;99.90;;;;;;5073262;28;20101;-70
2022/01/30 02:24:06;;;;;;;26.88;5.93;;;6.10;99.90;;;;;;5073382;28;20128;-71
2022/01/30 02:26:36;;;;;;;36.97;6.88;;;6.20;99.90;;;;;;5072593;28;20044;-71
2022/01/30 02:29:02;;;;;;;35.40;7.97;;;6.20;99.90;;;;;;5073198;28;20040;-71
2022/01/30 02:31:28;;;;;;;32.55;6.75;;;6.20;99.90;;;;;;5072900;28;20115;-71
2022/01/30 02:33:53;;;;;;;24.60;5.50;;;6.20;99.90;;;;;;5072670;28;20077;-70
2022/01/30 02:36:19;;;;;;;21.05;5.60;;;6.20;99.90;;;;;;5072655;28;20040;-70
2022/01/30 02:38:45;;;;;;;27.00;6.70;;;6.30;99.90;;;;;;5071821;28;20044;-71
2022/01/30 02:41:10;;;;;;;34.58;7.05;;;6.20;99.90;;;;;;5071497;28;20040;-71
2022/01/30 02:43:42;;;;;;;28.20;7.57;;;6.20;99.90;;;;;;5073254;28;20032;-70
2022/01/30 02:46:22;;;;;;;30.02;7.18;;;6.20;99.90;;;;;;5074921;28;20551;-71
2022/01/30 02:48:49;;;;;;;36.38;7.88;;;6.20;99.90;;;;;;5076671;28;20169;-70
2022/01/30 02:51:17;;;;;;;31.83;6.30;;;6.20;99.90;;;;;;5075239;28;20048;-71
2022/01/30 02:53:46;;;;;;;30.77;6.45;;;6.20;99.90;;;;;;5076649;28;20036;-71
2022/01/30 02:56:12;;;;;;;31.30;6.82;;;6.20;99.90;;;;;;5074458;28;20048;-71
2022/01/30 02:58:38;;;;;;;36.58;7.75;;;6.20;99.90;;;;;;5074702;28;20036;-71
2022/01/30 03:01:04;;;;;;;41.13;7.63;;;6.20;99.90;;;;;;5076290;28;20048;-71
2022/01/30 03:03:29;;;;;;;39.25;8.00;;;6.20;99.90;;;;;;5075960;28;20392;-71
2022/01/30 03:05:55;;;;;;;31.48;8.00;;;6.20;99.90;;;;;;5075772;28;20044;-70
2022/01/30 03:08:20;;;;;;;34.67;7.93;;;6.20;99.90;;;;;;5075146;28;20395;-71
2022/01/30 03:10:46;;;;;;;34.35;8.45;;;6.20;99.90;;;;;;5076308;28;20041;-71
2022/01/30 03:13:12;;;;;;;34.97;7.90;;;6.30;99.90;;;;;;5075683;28;20075;-71
2022/01/30 03:15:37;;;;;;;38.08;8.27;;;6.40;99.90;;;;;;5057483;28;20083;-71
2022/01/30 03:18:03;;;;;;;35.75;8.38;;;6.40;99.90;;;;;;5074544;28;20072;-71
2022/01/30 03:20:29;;;;;;;35.65;7.80;;;6.50;99.90;;;;;;5076061;28;20041;-71
2022/01/30 03:22:54;;;;;;;38.83;8.80;;;6.50;99.90;;;;;;5075566;28;20041;-71
2022/01/30 03:25:20;;;;;;;33.35;7.32;;;6.50;99.90;;;;;;5074211;28;20036;-71
2022/01/30 03:27:51;;;;;;;41.15;8.30;;;6.50;99.90;;;;;;5057672;28;20036;-70
2022/01/30 03:30:24;;;;;;;37.30;6.97;;;6.60;99.90;;;;;;5075372;28;20480;-71
2022/01/30 03:32:50;;;;;;;34.75;7.80;;;6.60;99.90;;;;;;5075661;28;20044;-71
2022/01/30 03:35:15;;;;;;;35.60;7.32;;;6.50;99.90;;;;;;5057223;28;20040;-71
2022/01/30 03:37:41;;;;;;;39.45;8.63;;;6.60;99.90;;;;;;5075112;28;20037;-70
2022/01/30 03:40:07;;;;;;;47.67;8.68;;;6.50;99.90;;;;;;5075306;28;20040;-70
2022/01/30 03:42:33;;;;;;;40.85;8.32;;;6.50;99.90;;;;;;5074262;28;20461;-71
2022/01/30 03:44:58;;;;;;;36.75;8.20;;;6.60;99.90;;;;;;5057272;28;20049;-71
2022/01/30 03:47:26;;;;;;;40.67;8.30;;;6.50;99.90;;;;;;5073604;28;20381;-71
2022/01/30 03:49:52;;;;;;;31.02;7.60;;;6.60;99.90;;;;;;5075118;28;20040;-71
2022/01/30 03:52:18;;;;;;;35.55;8.82;;;6.50;99.90;;;;;;5075530;28;20082;-71
2022/01/30 03:54:44;;;;;;;32.58;8.77;;;6.50;99.90;;;;;;5074846;28;20051;-71
2022/01/30 03:57:10;;;;;;;39.60;8.30;;;6.40;99.90;;;;;;5073415;28;20040;-70
2022/01/30 03:59:36;;;;;;;40.72;9.23;;;6.30;99.90;;;;;;5075480;28;20422;-70
2022/01/30 04:02:02;;;;;;;52.38;9.77;;;6.40;99.90;;;;;;5074730;28;20093;-71
2022/01/30 04:04:28;;;;;;;39.30;8.85;;;6.30;99.90;;;;;;5074786;28;20040;-71
2022/01/30 04:06:57;;;;;;;45.17;10.32;;;6.30;99.90;;;;;;5074312;28;20173;-71
2022/01/30 04:09:23;;;;;;;42.65;8.35;;;6.30;99.90;;;;;;5073161;28;20041;-71
2022/01/30 04:11:49;;;;;;;38.55;9.32;;;6.30;99.90;;;;;;5074215;28;20079;-71
2022/01/30 04:14:15;;;;;;;49.80;10.13;;;6.30;99.90;;;;;;5074850;28;20040;-71
2022/01/30 04:16:41;;;;;;;39.00;8.85;;;6.40;99.90;;;;;;5074652;28;20369;-71
2022/01/30 04:19:07;;;;;;;52.78;8.18;;;6.50;99.90;;;;;;5056464;28;20047;-71
2022/01/30 04:21:33;;;;;;;37.13;9.23;;;6.40;99.90;;;;;;5074970;28;20087;-71
2022/01/30 04:23:58;;;;;;;36.95;8.65;;;6.40;99.90;;;;;;5074422;28;20052;-70
2022/01/30 04:26:24;;;;;;;49.83;10.20;;;6.40;99.90;;;;;;5074380;28;20040;-71
2022/01/30 04:28:50;;;;;;;37.95;9.05;;;6.50;99.90;;;;;;5074355;28;20086;-71
2022/01/30 04:31:16;;;;;;;43.50;9.02;;;6.40;99.90;;;;;;5074140;28;20115;-71
2022/01/30 04:33:42;;;;;;;53.05;8.75;;;6.50;99.90;;;;;;5072905;28;20456;-71
2022/01/30 04:36:11;;;;;;;42.55;9.07;;;6.50;99.90;;;;;;5073880;28;20052;-71
2022/01/30 04:52:35;;;;;;;35.58;9.70;;;6.40;99.90;;;;;;5074478;28;20177;-71
2022/01/30 05:00:22;;;;;;;50.20;10.57;;;6.60;99.90;;;;;;5073082;28;20040;-71
2022/01/30 05:07:47;;;;;;;47.72;9.30;;;6.50;99.90;;;;;;5072799;28;20511;-71
2022/01/30 05:10:13;;;;;;;48.60;8.90;;;6.50;99.90;;;;;;5072229;28;20042;-71
2022/01/30 05:12:48;;;;;;;38.83;8.25;;;6.60;99.90;;;;;;5072694;28;20119;-71
2022/01/30 05:15:17;;;;;;;52.88;9.43;;;6.60;99.90;;;;;;5072294;28;20049;-71
2022/01/30 05:17:43;;;;;;;38.42;8.93;;;6.60;99.90;;;;;;5073509;28;20411;-71
2022/01/30 05:20:09;;;;;;;48.65;10.13;;;6.60;99.90;;;;;;5073754;28;20039;-71
2022/01/30 05:22:35;;;;;;;44.70;9.77;;;6.60;99.90;;;;;;5055445;28;20519;-71
2022/01/30 05:25:02;;;;;;;51.88;11.10;;;6.60;99.90;;;;;;5072690;28;20523;-71
2022/01/30 05:27:28;;;;;;;51.83;12.38;;;6.60;99.90;;;;;;5072027;28;20055;-71
2022/01/30 05:29:54;;;;;;;63.00;11.02;;;6.60;99.90;;;;;;5072742;28;20048;-71
2022/01/30 05:32:20;;;;;;;53.80;11.10;;;6.70;99.90;;;;;;5072218;28;20048;-71
2022/01/30 05:34:46;;;;;;;49.28;11.50;;;6.70;99.90;;;;;;5072060;28;20049;-71
2022/01/30 05:37:14;;;;;;;57.72;11.25;;;6.70;99.90;;;;;;5072864;28;20622;-71
2022/01/30 05:39:40;;;;;;;50.35;8.93;;;6.80;99.90;;;;;;5072023;28;20040;-71
2022/01/30 05:42:06;;;;;;;47.78;10.18;;;6.70;99.90;;;;;;5073259;28;20040;-70
2022/01/30 05:44:48;;;;;;;50.38;11.52;;;6.80;99.90;;;;;;5071973;28;20040;-71
2022/01/30 05:47:23;;;;;;;50.42;9.70;;;6.80;99.90;;;;;;5071511;28;20455;-71
2022/01/30 05:49:48;;;;;;;48.35;9.15;;;6.70;99.90;;;;;;5072167;28;20060;-71
2022/01/30 05:52:14;;;;;;;51.00;10.25;;;6.70;99.90;;;;;;5073285;28;20044;-70
2022/01/30 05:54:40;;;;;;;32.72;8.48;;;6.50;99.90;;;;;;5071757;28;20392;-70
2022/01/30 05:57:06;;;;;;;45.33;11.70;;;6.40;99.90;;;;;;5073159;28;20041;-71
2022/01/30 05:59:31;;;;;;;37.78;8.70;;;6.10;99.90;;;;;;5072356;28;20072;-71
2022/01/30 06:01:57;;;;;;;46.95;9.13;;;6.00;99.90;;;;;;5073698;28;20051;-70
2022/01/30 06:04:22;;;;;;;33.28;8.00;;;5.90;99.90;;;;;;5071994;28;20598;-70
2022/01/30 06:06:51;;;;;;;44.38;10.55;;;6.00;99.90;;;;;;5072851;28;20362;-70
2022/01/30 06:11:44;;;;;;;47.10;9.80;;;5.90;99.90;;;;;;5072770;28;20037;-70
2022/01/30 06:14:10;;;;;;;56.55;12.35;;;5.70;99.90;;;;;;5073007;28;20046;-70
2022/01/30 06:16:35;;;;;;;39.75;8.95;;;5.60;99.90;;;;;;5072888;28;20021;-71
2022/01/30 06:19:03;;;;;;;44.53;9.18;;;5.70;99.90;;;;;;5072937;28;20085;-70
2022/01/30 06:21:28;;;;;;;53.75;10.38;;;5.70;99.90;;;;;;5076089;28;20042;-70
2022/01/30 06:23:54;;;;;;;54.75;10.50;;;5.60;99.90;;;;;;5077024;28;20044;-70
2022/01/30 06:26:20;;;;;;;54.67;9.05;;;5.80;99.90;;;;;;5076317;28;20048;-71
2022/01/30 06:28:46;;;;;;;48.03;10.30;;;5.80;99.90;;;;;;5076480;28;20086;-70
2022/01/30 06:31:11;;;;;;;48.97;10.60;;;5.70;99.90;;;;;;5076621;28;20510;-71
2022/01/30 06:33:37;;;;;;;49.45;10.05;;;5.70;99.90;;;;;;5076487;28;20044;-70
2022/01/30 06:36:03;;;;;;;53.88;9.52;;;5.80;99.90;;;;;;5074804;28;20044;-71
2022/01/30 06:38:29;;;;;;;58.05;11.02;;;5.90;99.90;;;;;;5058631;28;20040;-70
2022/01/30 06:40:55;;;;;;;53.60;11.90;;;5.90;99.90;;;;;;5076583;28;20072;-71
2022/01/30 06:43:20;;;;;;;41.35;9.88;;;6.00;99.90;;;;;;5075599;28;20043;-71
2022/01/30 06:45:48;;;;;;;40.63;10.32;;;5.90;99.90;;;;;;5075785;28;20136;-71
2022/01/30 06:48:17;;;;;;;45.97;10.48;;;6.00;99.90;;;;;;5075203;28;20041;-71
2022/01/30 06:50:43;;;;;;;41.38;9.35;;;6.10;99.90;;;;;;5076336;28;20040;-71
2022/01/30 06:53:08;;;;;;;43.70;9.43;;;6.00;99.90;;;;;;5076735;28;20043;-71
2022/01/30 06:55:34;;;;;;;46.22;9.48;;;6.00;99.90;;;;;;5074536;28;20378;-71
2022/01/30 06:57:59;;;;;;;45.85;10.18;;;6.00;99.90;;;;;;5076250;28;20064;-71
2022/01/30 07:00:25;;;;;;;51.20;11.43;;;6.00;99.90;;;;;;5076149;28;20032;-71
2022/01/30 07:02:51;;;;;;;44.42;10.35;;;5.90;99.90;;;;;;5076110;28;20529;-71
2022/01/30 07:05:16;;;;;;;41.30;8.32;;;5.90;99.90;;;;;;5076112;28;20384;-71
2022/01/30 07:07:42;;;;;;;38.88;9.85;;;6.00;99.90;;;;;;5075679;28;20044;-70
2022/01/30 07:10:08;;;;;;;41.67;9.38;;;6.10;99.90;;;;;;5075880;28;20033;-71
2022/01/30 07:12:34;;;;;;;38.63;9.20;;;6.20;99.90;;;;;;5076356;28;20040;-71
2022/01/30 07:14:59;;;;;;;43.42;9.32;;;6.20;99.90;;;;;;5075569;28;20055;-70
2022/01/30 07:17:25;;;;;;;45.08;10.48;;;6.30;99.90;;;;;;5075436;28;20036;-71
2022/01/30 07:19:50;;;;;;;47.42;9.35;;;6.30;99.90;;;;;;5074934;28;20075;-71
2022/01/30 07:22:16;;;;;;;52.53;9.95;;;6.30;99.90;;;;;;5075725;28;20385;-71
2022/01/30 07:24:41;;;;;;;37.67;8.07;;;6.20;99.90;;;;;;5075820;28;20037;-71
2022/01/30 07:27:07;;;;;;;38.40;8.00;;;6.20;99.90;;;;;;5074176;28;20046;-71
2022/01/30 07:29:32;;;;;;;35.88;7.35;;;6.20;99.20;;;;;;5076020;28;20513;-71
2022/01/30 07:31:58;;;;;;;38.25;9.68;;;6.20;98.90;;;;;;5074224;28;20381;-71
2022/01/30 07:34:24;;;;;;;36.30;7.93;;;6.30;97.50;;;;;;5075408;28;20036;-71
2022/01/30 07:36:49;;;;;;;33.00;7.50;;;6.30;95.80;;;;;;5074021;28;20063;-71
2022/01/30 07:39:16;;;;;;;40.15;8.13;;;6.30;95.70;;;;;;5073669;28;20564;-71
2022/01/30 07:41:45;;;;;;;38.33;7.95;;;6.30;95.30;;;;;;5075606;28;20078;-71
2022/01/30 07:44:11;;;;;;;39.75;9.35;;;6.30;94.70;;;;;;5075105;28;20489;-71
2022/01/30 07:46:36;;;;;;;34.53;7.53;;;6.30;94.70;;;;;;5075093;28;20051;-71
2022/01/30 07:49:02;;;;;;;27.20;7.70;;;6.40;94.00;;;;;;5057835;28;20535;-71
2022/01/30 07:51:28;;;;;;;36.15;8.05;;;6.50;92.90;;;;;;5074956;28;20033;-70
2022/01/30 07:53:53;;;;;;;37.85;8.02;;;6.40;92.30;;;;;;5074933;28;20089;-69
2022/01/30 07:56:19;;;;;;;27.48;8.05;;;6.40;92.70;;;;;;5074333;28;21337;-70
2022/01/30 07:58:44;;;;;;;37.60;8.20;;;6.50;92.00;;;;;;5087666;28;20039;-70
2022/01/30 08:01:10;;;;;;;31.58;8.55;;;6.50;91.90;;;;;;5094184;28;20043;-70
2022/01/30 08:03:36;;;;;;;29.80;8.00;;;6.40;91.80;;;;;;5076919;28;20492;-70
2022/01/30 08:06:01;;;;;;;39.42;7.20;;;6.40;92.00;;;;;;5094793;28;20040;-70
2022/01/30 08:08:27;;;;;;;38.40;8.13;;;6.40;91.90;;;;;;5094768;28;20333;-70
2022/01/30 08:10:52;;;;;;;38.47;8.23;;;6.40;92.30;;;;;;5094150;28;20035;-70
2022/01/30 08:13:18;;;;;;;53.47;8.93;;;6.50;92.00;;;;;;5094716;28;20035;-70
2022/01/30 08:15:45;;;;;;;37.13;8.93;;;6.30;92.40;;;;;;5094283;28;20036;-71
2022/01/30 08:18:11;;;;;;;51.92;8.02;;;6.40;92.40;;;;;;5094849;28;20048;-70
2022/01/30 08:20:36;;;;;;;39.50;9.32;;;6.40;92.90;;;;;;5089153;28;20111;-70
2022/01/30 08:23:11;;;;;;;39.33;7.82;;;6.50;92.70;;;;;;5083840;28;20064;-70
2022/01/30 08:25:37;;;;;;;52.38;10.07;;;6.50;92.80;;;;;;5083239;28;20102;-71
2022/01/30 08:28:03;;;;;;;43.00;10.73;;;6.60;92.90;;;;;;5081919;28;20058;-71
2022/01/30 08:30:29;;;;;;;45.92;9.30;;;6.50;93.40;;;;;;5093356;28;20048;-71
2022/01/30 08:32:54;;;;;;;38.40;9.27;;;6.50;93.60;;;;;;5094633;28;20032;-71
2022/01/30 08:35:20;;;;;;;42.53;10.20;;;6.50;94.10;;;;;;5094362;28;20465;-71
2022/01/30 08:37:47;;;;;;;50.75;10.07;;;6.40;93.70;;;;;;5092951;28;20040;-70
2022/01/30 08:40:15;;;;;;;48.35;10.23;;;6.50;94.00;;;;;;5092850;28;20516;-71
2022/01/30 08:42:42;;;;;;;37.90;9.48;;;6.50;94.00;;;;;;5093847;28;20097;-71
2022/01/30 08:45:09;;;;;;;50.38;10.13;;;6.50;93.80;;;;;;5094333;28;20048;-70
2022/01/30 08:47:34;;;;;;;44.58;11.40;;;6.50;93.90;;;;;;5093923;28;20044;-71
2022/01/30 08:50:00;;;;;;;41.63;9.95;;;6.40;94.10;;;;;;5094614;28;20084;-71
2022/01/30 08:52:26;;;;;;;42.90;8.60;;;6.40;94.10;;;;;;5093255;28;20048;-71
2022/01/30 08:54:52;;;;;;;46.83;9.90;;;6.50;93.10;;;;;;5094612;28;20040;-71
2022/01/30 08:57:19;;;;;;;45.05;8.55;;;6.70;92.70;;;;;;5093298;28;20150;-70
2022/01/30 08:59:45;;;;;;;43.15;9.00;;;6.70;91.40;;;;;;5078273;28;20123;-70
2022/01/30 09:02:11;;;;;;;36.22;8.15;;;6.70;91.00;;;;;;5073525;28;20043;-71
2022/01/30 09:04:38;;;;;;;33.83;7.70;;;6.70;88.30;;;;;;5073572;28;20037;-70
2022/01/30 09:07:04;;;;;;;42.35;8.32;;;6.70;87.50;;;;;;5073470;28;20040;-71
2022/01/30 09:09:32;;;;;;;39.92;8.25;;;6.80;89.00;;;;;;5072279;28;20093;-70
2022/01/30 09:11:58;;;;;;;42.42;8.88;;;6.70;89.60;;;;;;5073772;28;20051;-70
2022/01/30 09:14:26;;;;;;;32.70;7.97;;;6.70;90.00;;;;;;5071853;28;20455;-70
2022/01/30 09:16:52;;;;;;;43.97;9.55;;;6.70;90.40;;;;;;5073166;28;20120;-70
2022/01/30 09:19:18;;;;;;;37.85;9.38;;;6.80;90.50;;;;;;5073634;28;20064;-71
2022/01/30 09:21:44;;;;;;;38.45;7.88;;;6.80;91.10;;;;;;5072336;28;20523;-71
2022/01/30 09:24:10;;;;;;;45.78;9.88;;;7.00;90.70;;;;;;5071801;28;20032;-70
2022/01/30 09:26:35;;;;;;;33.20;7.53;;;7.00;90.50;;;;;;5072965;28;20040;-71
2022/01/30 09:29:01;;;;;;;43.17;9.57;;;7.10;89.80;;;;;;5073452;28;20128;-71
2022/01/30 09:31:26;;;;;;;32.67;9.35;;;7.10;90.20;;;;;;5073741;28;20025;-71
2022/01/30 09:33:52;;;;;;;40.08;8.55;;;7.20;89.30;;;;;;5073302;28;20080;-70
2022/01/30 09:36:18;;;;;;;40.28;10.35;;;7.10;88.90;;;;;;5071956;28;20400;-70
2022/01/30 09:38:44;;;;;;;34.72;8.13;;;7.10;88.60;;;;;;5062366;28;20032;-70
2022/01/30 09:41:10;;;;;;;42.17;8.88;;;7.00;87.30;;;;;;5070071;28;20040;-70
2022/01/30 09:43:36;;;;;;;42.00;8.05;;;7.00;87.50;;;;;;5072974;28;20554;-69
2022/01/30 09:46:03;;;;;;;35.33;7.63;;;7.20;87.20;;;;;;5072938;28;20075;-71
2022/01/30 09:48:30;;;;;;;31.95;7.95;;;7.30;86.90;;;;;;5066430;28;20401;-70
2022/01/30 09:50:58;;;;;;;31.88;6.85;;;7.20;86.40;;;;;;5065257;28;20107;-70
2022/01/30 09:53:23;;;;;;;47.03;9.63;;;7.20;86.20;;;;;;5072088;28;20029;-70
2022/01/30 09:55:49;;;;;;;38.42;8.13;;;7.20;86.00;;;;;;5075574;28;20040;-70
2022/01/30 09:58:14;;;;;;;30.27;7.80;;;7.40;86.10;;;;;;5077325;28;20074;-70
2022/01/30 10:00:40;;;;;;;36.75;8.85;;;7.40;84.00;;;;;;5075704;28;20032;-70
2022/01/30 10:03:06;;;;;;;44.80;8.80;;;7.40;84.60;;;;;;5075731;28;20087;-70
2022/01/30 10:05:35;;;;;;;40.63;7.95;;;7.40;83.00;;;;;;5077277;28;20041;-70
2022/01/30 10:08:02;;;;;;;32.35;7.95;;;7.30;83.50;;;;;;5077071;28;20414;-70
2022/01/30 10:10:29;;;;;;;36.85;8.88;;;7.40;83.80;;;;;;5075569;28;20040;-70
2022/01/30 10:13:00;;;;;;;34.70;8.07;;;7.40;84.60;;;;;;5075643;28;20576;-70
2022/01/30 10:15:26;;;;;;;44.75;10.88;;;7.40;83.90;;;;;;5075904;28;20124;-70
2022/01/30 10:17:52;;;;;;;36.88;7.93;;;7.50;83.40;;;;;;5076383;28;20059;-70
2022/01/30 10:20:21;;;;;;;35.55;8.90;;;7.30;83.70;;;;;;5076627;28;20454;-71
2022/01/30 10:22:51;;;;;;;42.03;8.75;;;7.30;84.80;;;;;;5075364;28;20102;-71
2022/01/30 10:25:26;;;;;;;44.63;8.27;;;7.40;85.10;;;;;;5075561;28;20040;-70
2022/01/30 10:28:09;;;;;;;31.90;7.95;;;7.50;83.90;;;;;;5078783;28;20040;-71
2022/01/30 10:30:43;;;;;;;42.38;8.95;;;7.50;83.10;;;;;;5081185;28;20400;-70
2022/01/30 10:33:09;;;;;;;49.28;8.65;;;7.50;83.50;;;;;;5079908;28;20036;-70
2022/01/30 10:35:50;;;;;;;31.08;7.75;;;7.40;83.70;;;;;;5072590;28;20078;-70
2022/01/30 10:38:23;;;;;;;33.42;8.73;;;7.40;83.70;;;;;;5063242;28;20062;-70
2022/01/30 10:41:00;;;;;;;;;;;7.40;83.30;;;;;;5071860;28;20048;-70
2022/01/30 10:43:53;;;;;;;44.25;9.55;;;7.50;84.80;;;;;;5075063;28;19916;-70
2022/01/30 10:46:24;;;;;;;39.22;10.55;;;7.40;84.70;;;;;;5063092;28;20047;-70
2022/01/30 10:49:02;;;;;;;39.33;7.30;;;7.40;86.40;;;;;;5075926;28;20115;-70
2022/01/30 10:51:32;;;;;;;40.05;7.47;;;7.40;83.50;;;;;;5069294;28;20040;-70
2022/01/30 10:54:03;;;;;;;28.88;6.80;;;7.40;83.80;;;;;;5059698;28;20393;-71
2022/01/30 10:56:31;;;;;;;37.55;7.55;;;7.40;81.60;;;;;;5061107;28;20079;-71
2022/01/30 10:59:16;;;;;;;32.35;7.63;;;7.50;81.10;;;;;;5069693;28;20102;-71
2022/01/30 11:02:06;;;;;;;47.05;9.18;;;7.40;81.60;;;;;;5063585;28;20082;-70
2022/01/30 11:04:32;;;;;;;29.67;7.30;;;7.40;82.10;;;;;;5056416;28;20063;-72
2022/01/30 11:07:04;;;;;;;38.67;7.82;;;7.30;83.40;;;;;;5074090;28;20512;-71
2022/01/30 11:09:38;;;;;;;32.53;8.15;;;7.40;83.50;;;;;;5065268;28;20045;-71
2022/01/30 11:12:09;;;;;;;39.00;10.02;;;7.40;83.60;;;;;;5076017;28;20039;-70
2022/01/30 11:14:40;;;;;;;31.67;7.18;;;7.40;83.60;;;;;;5074691;28;20094;-71
2022/01/30 11:17:07;;;;;;;39.88;8.27;;;7.50;82.20;;;;;;5067639;28;20347;-71
2022/01/30 11:19:35;;;;;;;34.25;7.53;;;7.50;81.80;;;;;;5062955;28;20083;-70
2022/01/30 11:22:10;;;;;;;34.10;8.25;;;7.60;79.90;;;;;;5074966;28;20142;-70
2022/01/30 11:24:47;;;;;;;29.30;7.95;;;7.60;80.00;;;;;;5074881;28;20120;-70
2022/01/30 11:27:14;;;;;;;30.08;5.80;;;7.50;79.90;;;;;;5074230;28;20052;-70
2022/01/30 11:29:41;;;;;;;31.50;7.30;;;7.50;79.30;;;;;;5062189;28;20117;-70
2022/01/30 11:32:07;;;;;;;32.90;7.57;;;7.60;79.70;;;;;;5075098;28;20051;-70
2022/01/30 11:34:38;;;;;;;37.47;6.47;;;7.70;79.70;;;;;;5074909;28;20036;-70
2022/01/30 11:37:05;;;;;;;39.40;8.55;;;7.50;80.90;;;;;;5074141;28;20040;-70
2022/01/30 11:39:32;;;;;;;36.13;7.85;;;7.60;81.30;;;;;;5074323;28;20052;-71
2022/01/30 11:42:10;;;;;;;34.42;8.23;;;7.60;81.50;;;;;;5075599;28;20049;-71
2022/01/30 11:44:37;;;;;;;41.30;7.65;;;7.70;80.60;;;;;;5073933;28;20041;-71
2022/01/30 11:47:03;;;;;;;32.78;8.35;;;7.60;81.00;;;;;;5074790;28;20129;-71
2022/01/30 11:49:53;;;;;;;34.55;9.13;;;7.60;81.50;;;;;;5075028;28;20226;-70
2022/01/30 11:52:20;;;;;;;35.80;8.15;;;7.50;82.40;;;;;;5075594;28;20043;-70
2022/01/30 11:54:53;;;;;;;35.42;7.07;;;7.50;82.50;;;;;;5073436;28;20123;-71
2022/01/30 11:57:21;;;;;;;37.78;7.70;;;7.50;83.30;;;;;;5074670;28;20036;-71
2022/01/30 11:59:52;;;;;;;35.80;8.35;;;7.50;83.60;;;;;;5075520;28;20037;-71
2022/01/30 12:02:35;;;;;;;33.20;7.85;;;7.60;83.80;;;;;;5073644;28;20036;-71
2022/01/30 12:05:04;;;;;;;38.38;8.25;;;7.70;82.70;;;;;;5074987;28;20526;-70
2022/01/30 12:07:35;;;;;;;40.20;8.75;;;7.70;82.70;;;;;;5072540;28;20041;-71
2022/01/30 12:10:15;;;;;;;33.92;7.13;;;7.90;81.20;;;;;;5063411;28;20561;-71
2022/01/30 12:12:52;;;;;;;35.08;7.05;;;7.80;79.70;;;;;;5074920;28;20161;-71
2022/01/30 12:15:40;;;;;;;36.92;6.60;;;7.70;78.60;;;;;;5073729;28;20048;-71
2022/01/30 12:18:13;;;;;;;29.33;7.00;;;7.70;77.90;;;;;;5068505;28;20041;-71
2022/01/30 12:20:57;;;;;;;34.47;7.43;;;7.70;77.90;;;;;;5066652;28;20424;-71
2022/01/30 12:23:31;;;;;;;31.50;6.75;;;7.70;80.00;;;;;;5073240;28;20058;-70
2022/01/30 12:26:05;;;;;;;30.77;7.95;;;7.70;79.90;;;;;;5073172;28;20554;-71
2022/01/30 12:28:39;;;;;;;33.60;7.82;;;7.80;79.50;;;;;;5074529;28;20051;-71
2022/01/30 12:31:34;;;;;;;37.28;10.32;;;7.90;79.80;;;;;;5083291;28;20046;-71
2022/01/30 12:34:07;;;;;;;47.72;8.15;;;7.80;80.60;;;;;;5090995;28;20059;-71
2022/01/30 12:36:41;;;;;;;44.15;8.68;;;7.80;80.70;;;;;;5093919;28;20047;-73
2022/01/30 12:39:12;;;;;;;34.78;7.30;;;7.80;79.70;;;;;;5092361;28;20036;-73
2022/01/30 12:41:39;;;;;;;27.80;7.30;;;7.70;79.20;;;;;;5085263;28;20032;-70
2022/01/30 12:44:06;;;;;;;33.35;7.28;;;7.60;79.50;;;;;;5079611;28;20040;-70
2022/01/30 12:46:36;;;;;;;37.38;7.80;;;7.50;80.30;;;;;;5072335;28;20047;-70
2022/01/30 12:49:13;;;;;;;39.30;7.07;;;7.50;80.30;;;;;;5074266;28;20067;-71
2022/01/30 12:51:41;;;;;;;36.10;7.72;;;7.20;81.20;;;;;;5072593;28;20075;-71
2022/01/30 12:54:07;;;;;;;28.83;8.90;;;7.30;81.60;;;;;;5074388;28;20045;-71
2022/01/30 12:56:33;;;;;;;26.23;6.57;;;7.20;81.00;;;;;;5073607;28;20047;-71
2022/01/30 12:59:06;;;;;;;34.72;8.43;;;7.30;80.90;;;;;;5073887;28;20043;-70
2022/01/30 13:01:34;;;;;;;33.38;7.38;;;7.40;81.50;;;;;;5073942;28;20519;-70
2022/01/30 13:04:17;;;;;;;28.80;8.30;;;7.40;81.10;;;;;;5073631;28;20512;-71
2022/01/30 13:06:48;;;;;;;25.40;7.65;;;7.60;81.60;;;;;;5073303;28;20044;-70
2022/01/30 13:09:22;;;;;;;36.92;7.07;;;7.60;80.10;;;;;;5074158;28;20051;-71
2022/01/30 13:11:50;;;;;;;;;;;7.80;81.10;;;;;;5074215;28;20052;-71
2022/01/30 13:14:16;;;;;;;29.10;6.63;;;7.80;80.80;;;;;;5073992;28;19963;-71
2022/01/30 13:16:50;;;;;;;30.98;7.88;;;7.90;77.80;;;;;;5073120;28;20086;-71
2022/01/30 13:19:34;;;;;;;;;;;8.00;76.40;;;;;;5072933;28;20051;-70
2022/01/30 13:22:03;;;;;;;33.58;8.20;;;7.80;76.40;;;;;;5072509;28;19926;-70
2022/01/30 13:24:29;;;;;;;28.10;7.70;;;7.80;77.00;;;;;;5073244;28;20389;-70
2022/01/30 13:27:04;;;;;;;33.92;6.90;;;7.90;75.90;;;;;;5071796;28;20047;-70
2022/01/30 13:29:33;;;;;;;31.00;6.22;;;7.90;76.00;;;;;;5073617;28;20052;-70
2022/01/30 13:32:00;;;;;;;31.63;7.93;;;7.80;76.50;;;;;;5073296;28;20036;-70
2022/01/30 13:34:31;;;;;;;34.50;6.85;;;7.80;76.80;;;;;;5071966;28;20162;-70
2022/01/30 13:37:08;;;;;;;30.50;7.22;;;7.90;77.00;;;;;;5079503;28;20051;-70